Rechercher aéroport 
image banner adimage banner adimage banner ad
image banner ad

17CA - Doctors Medical Center

Situé à San Pablo, United States

ICAO - 17CA, IATA -

Données fournies par Airmate  

Information générale

Coordonnées: N37°47'53" W121°14'50"
Élévation : 23 feet MSL.
Variation magnétique : 16° East
Voir autres Aéroports à California

Données opérationnelles

Special qualification required
Heure actuelle UTC:
Heure actuelle locale:
Météo à : KSCK - Stockton Metropolitan ( 11 km )
METAR: KSCK 260855Z AUTO 35007KT 10SM CLR 14/12 A2996 RMK AO2 SLP145 T01440117 51011
TAF: KSCK 260537Z 2606/2706 32009KT P6SM SKC FM261000 35004KT P6SM BKN250 FM262200 30008KT P6SM SCT250
Voir NOTAMs / SUP AIP / TFR affectant cet aéroport [VIEW]
Fréquences de communication: [VIEW]

Pistes:

Coordonnées de l'aéroport

Adresse: San Pablo United States

Vue satellite de 17CA